sensor_id;sensor_type;location;lat;lon;timestamp;temperature;humidity
34472;DHT22;20710;49.976;19.836;2022-07-21T00:01:00;23.29;59.65
34472;DHT22;20710;49.976;19.836;2022-07-21T00:07:03;23.53;58.94
34472;DHT22;20710;49.976;19.836;2022-07-21T00:13:10;21.78;60.81
34472;DHT22;20710;49.976;19.836;2022-07-21T00:19:24;20.39;64.15
34472;DHT22;20710;49.976;19.836;2022-07-21T00:25:31;21.74;64.87
34472;DHT22;20710;49.976;19.836;2022-07-21T00:31:32;22.71;61.95
34472;DHT22;20710;49.976;19.836;2022-07-21T00:37:47;23.25;59.42
34472;DHT22;20710;49.976;19.836;2022-07-21T00:43:50;21.30;61.51
34472;DHT22;20710;49.976;19.836;2022-07-21T00:49:59;22.11;62.65
34472;DHT22;20710;49.976;19.836;2022-07-21T00:56:00;22.97;60.07
34472;DHT22;20710;49.976;19.836;2022-07-21T01:02:08;23.53;58.00
34472;DHT22;20710;49.976;19.836;2022-07-21T01:08:12;21.75;60.41
34472;DHT22;20710;49.976;19.836;2022-07-21T01:14:24;20.29;64.40
34472;DHT22;20710;49.976;19.836;2022-07-21T01:20:27;21.92;63.07
34472;DHT22;20710;49.976;19.836;2022-07-21T01:26:40;22.74;60.39
34472;DHT22;20710;49.976;19.836;2022-07-21T01:32:43;23.27;58.53
34472;DHT22;20710;49.976;19.836;2022-07-21T01:38:51;21.39;60.93
34472;DHT22;20710;49.976;19.836;2022-07-21T01:45:17;19.78;64.47
34472;DHT22;20710;49.976;19.836;2022-07-21T01:51:21;21.37;64.56
34472;DHT22;20710;49.976;19.836;2022-07-21T01:57:28;22.23;61.17
34472;DHT22;20710;49.976;19.836;2022-07-21T02:03:31;22.57;59.82
34472;DHT22;20710;49.976;19.836;2022-07-21T02:09:43;22.78;59.16
34472;DHT22;20710;49.976;19.836;2022-07-21T02:15:45;21.01;60.89
34472;DHT22;20710;49.976;19.836;2022-07-21T02:21:50;19.52;64.26
34472;DHT22;20710;49.976;19.836;2022-07-21T02:27:55;20.84;65.21
34472;DHT22;20710;49.976;19.836;2022-07-21T02:34:11;21.71;61.59
34472;DHT22;20710;49.976;19.836;2022-07-21T02:40:17;22.08;60.41
34472;DHT22;20710;49.976;19.836;2022-07-21T02:46:26;22.37;59.79
34472;DHT22;20710;49.976;19.836;2022-07-21T02:52:33;22.59;58.75
34472;DHT22;20710;49.976;19.836;2022-07-21T02:58:45;20.58;61.28
34472;DHT22;20710;49.976;19.836;2022-07-21T03:04:52;18.95;65.62
34472;DHT22;20710;49.976;19.836;2022-07-21T03:10:57;20.68;64.74
34472;DHT22;20710;49.976;19.836;2022-07-21T03:16:59;21.43;62.15
34472;DHT22;20710;49.976;19.836;2022-07-21T03:23:05;21.92;60.51
34472;DHT22;20710;49.976;19.836;2022-07-21T03:29:12;22.20;59.74
34472;DHT22;20710;49.976;19.836;2022-07-21T03:35:14;22.49;58.95
34472;DHT22;20710;49.976;19.836;2022-07-21T03:41:16;20.54;61.16
34472;DHT22;20710;49.976;19.836;2022-07-21T03:47:18;19.06;64.56
34472;DHT22;20710;49.976;19.836;2022-07-21T03:53:21;20.50;66.24
34472;DHT22;20710;49.976;19.836;2022-07-21T03:59:23;21.47;63.49
34472;DHT22;20710;49.976;19.836;2022-07-21T04:05:27;22.01;61.70
34472;DHT22;20710;49.976;19.836;2022-07-21T04:11:35;22.63;60.45
34472;DHT22;20710;49.976;19.836;2022-07-21T04:17:38;22.99;59.15
34472;DHT22;20710;49.976;19.836;2022-07-21T04:23:54;21.19;61.77
34472;DHT22;20710;49.976;19.836;2022-07-21T04:30:06;22.13;62.46
34472;DHT22;20710;49.976;19.836;2022-07-21T04:36:11;22.92;60.06
34472;DHT22;20710;49.976;19.836;2022-07-21T04:42:12;23.44;59.25
34472;DHT22;20710;49.976;19.836;2022-07-21T04:48:14;21.87;61.62
34472;DHT22;20710;49.976;19.836;2022-07-21T04:54:16;22.64;62.79
34472;DHT22;20710;49.976;19.836;2022-07-21T05:00:29;23.61;60.04
34472;DHT22;20710;49.976;19.836;2022-07-21T05:06:38;24.20;58.96
34472;DHT22;20710;49.976;19.836;2022-07-21T05:12:47;22.57;61.64
34472;DHT22;20710;49.976;19.836;2022-07-21T05:18:58;21.64;65.29
34472;DHT22;20710;49.976;19.836;2022-07-21T05:25:04;23.60;62.35
34472;DHT22;20710;49.976;19.836;2022-07-21T05:31:15;24.53;59.82
34472;DHT22;20710;49.976;19.836;2022-07-21T05:37:30;25.16;58.43
34472;DHT22;20710;49.976;19.836;2022-07-21T05:43:41;23.80;60.82
34472;DHT22;20710;49.976;19.836;2022-07-21T05:49:49;22.74;63.89
34472;DHT22;20710;49.976;19.836;2022-07-21T05:55:53;24.44;61.55
34472;DHT22;20710;49.976;19.836;2022-07-21T06:01:56;25.56;59.22
34472;DHT22;20710;49.976;19.836;2022-07-21T06:08:10;24.33;60.94
34472;DHT22;20710;49.976;19.836;2022-07-21T06:14:12;23.32;63.29
34472;DHT22;20710;49.976;19.836;2022-07-21T06:20:14;24.99;61.61
34472;DHT22;20710;49.976;19.836;2022-07-21T06:26:15;25.82;57.87
34472;DHT22;20710;49.976;19.836;2022-07-21T06:32:16;24.42;61.24
34472;DHT22;20710;49.976;19.836;2022-07-21T06:38:17;23.88;62.65
34472;DHT22;20710;49.976;19.836;2022-07-21T06:44:21;25.77;60.17
34472;DHT22;20710;49.976;19.836;2022-07-21T06:50:32;26.17;58.46
34472;DHT22;20710;49.976;19.836;2022-07-21T06:56:48;25.19;61.87
34472;DHT22;20710;49.976;19.836;2022-07-21T07:02:59;24.94;63.34
34472;DHT22;20710;49.976;19.836;2022-07-21T07:09:00;27.09;58.97
34472;DHT22;20710;49.976;19.836;2022-07-21T07:15:02;26.60;60.02
34472;DHT22;20710;49.976;19.836;2022-07-21T07:21:03;26.30;60.79
34472;DHT22;20710;49.976;19.836;2022-07-21T07:27:05;26.50;61.58
34472;DHT22;20710;49.976;19.836;2022-07-21T07:33:07;26.67;60.83
34472;DHT22;20710;49.976;19.836;2022-07-21T07:39:08;26.88;60.28
34472;DHT22;20710;49.976;19.836;2022-07-21T07:45:12;27.19;59.52
34472;DHT22;20710;49.976;19.836;2022-07-21T07:51:30;27.54;58.83
34472;DHT22;20710;49.976;19.836;2022-07-21T07:57:43;27.78;58.65
34472;DHT22;20710;49.976;19.836;2022-07-21T08:03:52;28.05;57.30
34472;DHT22;20710;49.976;19.836;2022-07-21T08:10:04;28.19;56.78
34472;DHT22;20710;49.976;19.836;2022-07-21T08:16:16;28.27;55.86
34472;DHT22;20710;49.976;19.836;2022-07-21T08:22:25;28.41;55.24
34472;DHT22;20710;49.976;19.836;2022-07-21T08:28:30;28.51;53.95
34472;DHT22;20710;49.976;19.836;2022-07-21T08:34:39;28.70;53.60
34472;DHT22;20710;49.976;19.836;2022-07-21T08:40:46;28.81;52.97
34472;DHT22;20710;49.976;19.836;2022-07-21T08:47:05;28.89;52.52
34472;DHT22;20710;49.976;19.836;2022-07-21T08:53:19;29.02;53.64
34472;DHT22;20710;49.976;19.836;2022-07-21T08:59:24;29.09;54.05
34472;DHT22;20710;49.976;19.836;2022-07-21T09:05:37;29.13;52.83
34472;DHT22;20710;49.976;19.836;2022-07-21T09:11:55;29.17;51.56
34472;DHT22;20710;49.976;19.836;2022-07-21T09:18:13;29.23;50.92
34472;DHT22;20710;49.976;19.836;2022-07-21T09:24:37;29.44;51.11
34472;DHT22;20710;49.976;19.836;2022-07-21T09:31:12;29.68;51.31
34472;DHT22;20710;49.976;19.836;2022-07-21T09:37:33;30.06;49.63
34472;DHT22;20710;49.976;19.836;2022-07-21T09:50:01;30.82;49.47
34472;DHT22;20710;49.976;19.836;2022-07-21T09:56:28;31.24;47.19
34472;DHT22;20710;49.976;19.836;2022-07-21T10:02:46;31.58;45.16
34472;DHT22;20710;49.976;19.836;2022-07-21T10:09:10;31.79;43.35
34472;DHT22;20710;49.976;19.836;2022-07-21T10:15:20;32.02;43.44
34472;DHT22;20710;49.976;19.836;2022-07-21T10:28:23;32.43;42.20
34472;DHT22;20710;49.976;19.836;2022-07-21T10:34:37;32.67;41.90
34472;DHT22;20710;49.976;19.836;2022-07-21T10:41:06;32.89;40.35
34472;DHT22;20710;49.976;19.836;2022-07-21T10:47:25;33.08;40.99
34472;DHT22;20710;49.976;19.836;2022-07-21T10:53:45;33.20;41.07
34472;DHT22;20710;49.976;19.836;2022-07-21T11:00:17;33.33;40.50
34472;DHT22;20710;49.976;19.836;2022-07-21T11:06:24;33.60;42.47
34472;DHT22;20710;49.976;19.836;2022-07-21T11:18:55;34.32;40.65
34472;DHT22;20710;49.976;19.836;2022-07-21T11:25:10;34.46;41.11
34472;DHT22;20710;49.976;19.836;2022-07-21T11:31:23;34.67;40.35
34472;DHT22;20710;49.976;19.836;2022-07-21T11:37:54;34.83;38.64
34472;DHT22;20710;49.976;19.836;2022-07-21T11:44:13;35.13;35.35
34472;DHT22;20710;49.976;19.836;2022-07-21T11:50:23;34.94;36.15
34472;DHT22;20710;49.976;19.836;2022-07-21T11:56:27;34.74;35.82
34472;DHT22;20710;49.976;19.836;2022-07-21T12:02:33;34.70;37.32
34472;DHT22;20710;49.976;19.836;2022-07-21T12:15:31;34.05;36.18
34472;DHT22;20710;49.976;19.836;2022-07-21T12:21:49;33.51;37.26
34472;DHT22;20710;49.976;19.836;2022-07-21T12:28:03;33.19;37.90
34472;DHT22;20710;49.976;19.836;2022-07-21T12:34:18;32.82;36.87
34472;DHT22;20710;49.976;19.836;2022-07-21T12:40:45;32.54;39.30
34472;DHT22;20710;49.976;19.836;2022-07-21T12:46:49;32.40;39.51
34472;DHT22;20710;49.976;19.836;2022-07-21T12:52:54;32.20;39.13
34472;DHT22;20710;49.976;19.836;2022-07-21T12:59:07;32.12;38.05
34472;DHT22;20710;49.976;19.836;2022-07-21T13:05:36;31.86;40.06
34472;DHT22;20710;49.976;19.836;2022-07-21T13:11:51;31.79;40.64
34472;DHT22;20710;49.976;19.836;2022-07-21T13:18:00;31.63;40.81
34472;DHT22;20710;49.976;19.836;2022-07-21T13:24:10;31.57;41.24
34472;DHT22;20710;49.976;19.836;2022-07-21T13:30:29;31.44;41.16
34472;DHT22;20710;49.976;19.836;2022-07-21T13:36:42;31.32;40.80
34472;DHT22;20710;49.976;19.836;2022-07-21T13:42:55;31.22;40.38
34472;DHT22;20710;49.976;19.836;2022-07-21T13:49:03;31.09;40.94
34472;DHT22;20710;49.976;19.836;2022-07-21T13:55:18;31.05;41.34
34472;DHT22;20710;49.976;19.836;2022-07-21T14:01:26;30.98;41.43
34472;DHT22;20710;49.976;19.836;2022-07-21T14:07:40;30.90;41.10
34472;DHT22;20710;49.976;19.836;2022-07-21T14:13:50;30.93;40.18
34472;DHT22;20710;49.976;19.836;2022-07-21T14:19:55;30.90;40.63
34472;DHT22;20710;49.976;19.836;2022-07-21T14:26:07;30.88;40.43
34472;DHT22;20710;49.976;19.836;2022-07-21T14:32:22;30.82;40.56
34472;DHT22;20710;49.976;19.836;2022-07-21T14:38:27;30.82;41.07
34472;DHT22;20710;49.976;19.836;2022-07-21T14:44:37;30.77;40.96
34472;DHT22;20710;49.976;19.836;2022-07-21T14:50:42;30.71;40.74
34472;DHT22;20710;49.976;19.836;2022-07-21T14:56:43;30.70;41.83
34472;DHT22;20710;49.976;19.836;2022-07-21T15:02:53;30.70;41.79
34472;DHT22;20710;49.976;19.836;2022-07-21T15:09:04;30.64;42.27
34472;DHT22;20710;49.976;19.836;2022-07-21T15:15:12;30.54;42.21
34472;DHT22;20710;49.976;19.836;2022-07-21T15:21:25;30.46;42.73
34472;DHT22;20710;49.976;19.836;2022-07-21T15:27:39;30.38;42.32
34472;DHT22;20710;49.976;19.836;2022-07-21T15:33:45;30.36;41.89
34472;DHT22;20710;49.976;19.836;2022-07-21T15:39:52;30.34;42.33
34472;DHT22;20710;49.976;19.836;2022-07-21T15:45:56;30.26;42.35
34472;DHT22;20710;49.976;19.836;2022-07-21T15:52:05;30.16;42.42
34472;DHT22;20710;49.976;19.836;2022-07-21T15:58:07;30.12;41.80
34472;DHT22;20710;49.976;19.836;2022-07-21T16:04:17;30.02;41.89
34472;DHT22;20710;49.976;19.836;2022-07-21T16:10:24;29.92;41.70
34472;DHT22;20710;49.976;19.836;2022-07-21T16:16:29;29.85;42.43
34472;DHT22;20710;49.976;19.836;2022-07-21T16:22:32;29.69;42.77
34472;DHT22;20710;49.976;19.836;2022-07-21T16:28:35;29.54;42.67
34472;DHT22;20710;49.976;19.836;2022-07-21T16:34:38;29.44;43.04
34472;DHT22;20710;49.976;19.836;2022-07-21T16:40:43;29.33;43.88
34472;DHT22;20710;49.976;19.836;2022-07-21T16:46:52;29.20;44.09
34472;DHT22;20710;49.976;19.836;2022-07-21T16:53:01;29.07;44.55
34472;DHT22;20710;49.976;19.836;2022-07-21T16:59:04;28.91;45.07
34472;DHT22;20710;49.976;19.836;2022-07-21T17:05:12;28.71;45.53
34472;DHT22;20710;49.976;19.836;2022-07-21T17:11:19;28.58;45.62
34472;DHT22;20710;49.976;19.836;2022-07-21T17:17:22;28.46;45.91
34472;DHT22;20710;49.976;19.836;2022-07-21T17:23:27;28.30;46.49
34472;DHT22;20710;49.976;19.836;2022-07-21T17:29:34;28.13;46.95
34472;DHT22;20710;49.976;19.836;2022-07-21T17:35:50;27.95;47.34
34472;DHT22;20710;49.976;19.836;2022-07-21T17:42:00;27.72;47.79
34472;DHT22;20710;49.976;19.836;2022-07-21T17:48:11;27.49;47.84
34472;DHT22;20710;49.976;19.836;2022-07-21T17:54:13;27.24;48.27
34472;DHT22;20710;49.976;19.836;2022-07-21T18:00:19;27.07;48.76
34472;DHT22;20710;49.976;19.836;2022-07-21T18:06:24;26.85;49.16
34472;DHT22;20710;49.976;19.836;2022-07-21T18:12:37;26.65;49.50
34472;DHT22;20710;49.976;19.836;2022-07-21T18:18:41;26.47;49.51
34472;DHT22;20710;49.976;19.836;2022-07-21T18:24:51;26.30;49.61
34472;DHT22;20710;49.976;19.836;2022-07-21T18:30:55;26.16;49.54
34472;DHT22;20710;49.976;19.836;2022-07-21T18:37:01;26.03;49.58
34472;DHT22;20710;49.976;19.836;2022-07-21T18:43:12;25.87;49.73
34472;DHT22;20710;49.976;19.836;2022-07-21T18:49:23;25.70;50.04
34472;DHT22;20710;49.976;19.836;2022-07-21T18:55:29;25.48;50.41
34472;DHT22;20710;49.976;19.836;2022-07-21T19:01:36;25.29;50.96
34472;DHT22;20710;49.976;19.836;2022-07-21T19:07:40;25.10;51.09
34472;DHT22;20710;49.976;19.836;2022-07-21T19:13:46;24.95;51.55
34472;DHT22;20710;49.976;19.836;2022-07-21T19:19:55;24.77;51.70
34472;DHT22;20710;49.976;19.836;2022-07-21T19:26:01;24.67;53.72
34472;DHT22;20710;49.976;19.836;2022-07-21T19:32:09;24.56;54.24
34472;DHT22;20710;49.976;19.836;2022-07-21T19:38:33;24.29;54.50
34472;DHT22;20710;49.976;19.836;2022-07-21T19:44:39;23.94;55.07
34472;DHT22;20710;49.976;19.836;2022-07-21T19:50:45;23.54;56.17
34472;DHT22;20710;49.976;19.836;2022-07-21T19:56:49;23.21;56.78
34472;DHT22;20710;49.976;19.836;2022-07-21T20:02:51;22.91;57.44
34472;DHT22;20710;49.976;19.836;2022-07-21T20:08:56;22.63;58.06
34472;DHT22;20710;49.976;19.836;2022-07-21T20:15:14;22.35;58.58
34472;DHT22;20710;49.976;19.836;2022-07-21T20:21:23;22.16;59.45
34472;DHT22;20710;49.976;19.836;2022-07-21T20:27:27;21.99;59.75
34472;DHT22;20710;49.976;19.836;2022-07-21T20:33:29;21.82;60.02
34472;DHT22;20710;49.976;19.836;2022-07-21T20:39:35;21.67;60.68
34472;DHT22;20710;49.976;19.836;2022-07-21T20:45:38;22.60;61.12
34472;DHT22;20710;49.976;19.836;2022-07-21T20:51:40;24.49;57.10
34472;DHT22;20710;49.976;19.836;2022-07-21T20:57:43;23.33;57.93
34472;DHT22;20710;49.976;19.836;2022-07-21T21:03:52;22.22;60.64
34472;DHT22;20710;49.976;19.836;2022-07-21T21:09:56;23.65;59.91
34472;DHT22;20710;49.976;19.836;2022-07-21T21:16:00;24.77;55.45
34472;DHT22;20710;49.976;19.836;2022-07-21T21:22:10;23.50;56.30
34472;DHT22;20710;49.976;19.836;2022-07-21T21:28:11;22.32;58.40
34472;DHT22;20710;49.976;19.836;2022-07-21T21:34:19;21.68;59.93
34472;DHT22;20710;49.976;19.836;2022-07-21T21:40:28;21.40;61.62
34472;DHT22;20710;49.976;19.836;2022-07-21T21:46:41;23.37;59.59
34472;DHT22;20710;49.976;19.836;2022-07-21T21:52:43;22.80;57.79
34472;DHT22;20710;49.976;19.836;2022-07-21T21:58:48;21.87;60.02
34472;DHT22;20710;49.976;19.836;2022-07-21T22:04:56;21.40;61.67
34472;DHT22;20710;49.976;19.836;2022-07-21T22:11:05;23.25;61.80
34472;DHT22;20710;49.976;19.836;2022-07-21T22:17:13;24.68;56.60
34472;DHT22;20710;49.976;19.836;2022-07-21T22:23:22;23.29;57.93
34472;DHT22;20710;49.976;19.836;2022-07-21T22:29:38;21.99;60.80
34472;DHT22;20710;49.976;19.836;2022-07-21T22:35:44;21.30;62.25
34472;DHT22;20710;49.976;19.836;2022-07-21T22:41:54;22.95;61.73
34472;DHT22;20710;49.976;19.836;2022-07-21T22:48:01;23.92;58.38
34472;DHT22;20710;49.976;19.836;2022-07-21T22:54:10;22.46;59.65
34472;DHT22;20710;49.976;19.836;2022-07-21T23:00:12;21.22;62.09
34472;DHT22;20710;49.976;19.836;2022-07-21T23:06:16;22.46;62.18
34472;DHT22;20710;49.976;19.836;2022-07-21T23:12:24;23.40;59.69
34472;DHT22;20710;49.976;19.836;2022-07-21T23:18:26;23.78;57.83
34472;DHT22;20710;49.976;19.836;2022-07-21T23:24:30;22.26;59.31
34472;DHT22;20710;49.976;19.836;2022-07-21T23:30:31;20.94;62.65
34472;DHT22;20710;49.976;19.836;2022-07-21T23:36:37;21.92;63.20
34472;DHT22;20710;49.976;19.836;2022-07-21T23:42:42;22.98;60.08
34472;DHT22;20710;49.976;19.836;2022-07-21T23:48:48;23.34;58.58
34472;DHT22;20710;49.976;19.836;2022-07-21T23:54:55;21.81;60.14
